Time;durP1;ratioP1;P1;durP2;ratioP2;P2;SDS_P1;SDS_P2;PMS_P1;PMS_P2;Temp;Humidity;BMP_temperature;BMP_pressure;BME280_temperature;BME280_humidity;BME280_pressure;Samples;Min_cycle;Max_cycle;Signal;HPM_P1;HPM_P2
2023/08/28 00:02:45;;;;;;;15.47;13.97;;;23.00;82.20;;;;;;6158333;28;20191;-70
2023/08/28 00:05:46;;;;;;;17.43;15.17;;;23.00;82.00;;;;;;6158896;28;20195;-70
2023/08/28 00:08:46;;;;;;;15.50;14.03;;;23.00;82.20;;;;;;6147313;28;20235;-70
2023/08/28 00:11:47;;;;;;;15.17;13.83;;;22.90;82.00;;;;;;6155137;28;20199;-69
2023/08/28 00:14:47;;;;;;;16.23;14.80;;;22.90;82.30;;;;;;6159549;28;20227;-70
2023/08/28 00:17:48;;;;;;;16.47;14.90;;;22.90;82.30;;;;;;6158659;28;20676;-70
2023/08/28 00:20:49;;;;;;;15.30;13.93;;;22.90;83.00;;;;;;6157469;28;20190;-70
2023/08/28 00:23:50;;;;;;;15.93;14.63;;;22.90;83.10;;;;;;6151414;28;20197;-70
2023/08/28 00:26:50;;;;;;;15.73;14.43;;;22.90;83.20;;;;;;6167058;28;20196;-69
2023/08/28 00:29:51;;;;;;;16.03;14.57;;;22.80;83.30;;;;;;6152279;28;20197;-70
2023/08/28 00:32:52;;;;;;;15.53;14.23;;;22.80;83.50;;;;;;6162843;28;20205;-69
2023/08/28 00:35:53;;;;;;;15.50;14.13;;;22.80;83.70;;;;;;6161235;28;20202;-70
2023/08/28 00:38:53;;;;;;;16.60;15.00;;;22.80;84.00;;;;;;6141717;28;20215;-70
2023/08/28 00:41:54;;;;;;;17.07;15.57;;;22.80;84.00;;;;;;6152867;28;20286;-70
2023/08/28 00:44:55;;;;;;;17.43;15.73;;;22.80;84.10;;;;;;6138206;28;20200;-70
2023/08/28 00:47:55;;;;;;;15.73;14.23;;;22.70;84.20;;;;;;6148764;28;20259;-70
2023/08/28 00:50:57;;;;;;;15.67;14.27;;;22.70;84.30;;;;;;6163537;28;20196;-70
2023/08/28 00:53:58;;;;;;;17.33;15.67;;;22.70;84.70;;;;;;6178832;28;20192;-70
2023/08/28 00:56:59;;;;;;;16.43;14.80;;;22.70;85.00;;;;;;6161839;28;20193;-70
2023/08/28 01:00:01;;;;;;;17.17;15.57;;;22.70;85.00;;;;;;6174925;28;20283;-70
2023/08/28 01:03:03;;;;;;;18.10;16.40;;;22.70;85.10;;;;;;6161617;28;20200;-70
2023/08/28 01:06:29;;;;;;;18.53;16.67;;;22.60;85.30;;;;;;6165942;28;20196;-69
2023/08/28 01:10:15;;;;;;;18.37;16.43;;;22.60;85.50;;;;;;6174565;28;20204;-70
2023/08/28 01:13:25;;;;;;;17.80;16.23;;;22.60;86.00;;;;;;6168327;28;20197;-70
2023/08/28 01:16:27;;;;;;;17.87;16.07;;;22.60;86.10;;;;;;6181156;28;20296;-70
2023/08/28 01:19:31;;;;;;;17.80;16.20;;;22.60;86.10;;;;;;6178231;28;20208;-70
2023/08/28 01:22:39;;;;;;;20.23;18.13;;;22.50;86.20;;;;;;6180491;28;20188;-70
2023/08/28 01:25:39;;;;;;;17.77;16.27;;;22.50;86.40;;;;;;6188514;28;20189;-70
2023/08/28 01:28:40;;;;;;;19.37;16.20;;;22.50;86.40;;;;;;6161582;28;20240;-69
2023/08/28 01:31:41;;;;;;;16.67;14.93;;;22.50;86.20;;;;;;6138463;28;20200;-70
2023/08/28 01:34:42;;;;;;;16.30;14.70;;;22.50;86.00;;;;;;6163253;28;20202;-69
2023/08/28 01:37:49;;;;;;;15.90;14.30;;;22.50;86.00;;;;;;6162340;28;20276;-70
2023/08/28 01:41:07;;;;;;;15.83;14.33;;;22.50;85.70;;;;;;6189888;28;20224;-70
2023/08/28 01:44:11;;;;;;;14.03;12.80;;;22.50;85.00;;;;;;6192315;28;20195;-70
2023/08/28 01:47:13;;;;;;;12.63;11.53;;;22.40;84.90;;;;;;6162789;28;20193;-69
2023/08/28 01:50:14;;;;;;;14.30;13.00;;;22.40;85.00;;;;;;6158323;28;20200;-69
2023/08/28 01:53:15;;;;;;;14.13;12.37;;;22.30;84.60;;;;;;6161744;28;20272;-70
2023/08/28 01:56:16;;;;;;;14.27;12.93;;;22.30;84.50;;;;;;6164157;28;20194;-70
2023/08/28 01:59:17;;;;;;;14.20;12.80;;;22.30;84.40;;;;;;6186233;28;20209;-70
2023/08/28 02:02:17;;;;;;;13.23;12.17;;;22.30;84.70;;;;;;6141045;28;20184;-69
2023/08/28 02:05:18;;;;;;;15.03;13.63;;;22.20;84.80;;;;;;6130294;28;20192;-70
2023/08/28 02:08:18;;;;;;;14.13;12.83;;;22.20;84.70;;;;;;6160144;28;20275;-70
2023/08/28 02:11:19;;;;;;;13.73;12.17;;;22.10;84.20;;;;;;6158551;28;20198;-70
2023/08/28 02:14:20;;;;;;;13.90;12.57;;;22.10;84.10;;;;;;6159278;28;20193;-70
2023/08/28 02:17:20;;;;;;;13.67;12.47;;;22.10;83.70;;;;;;6147273;28;20225;-70
2023/08/28 02:20:21;;;;;;;12.97;11.67;;;22.10;84.70;;;;;;6144445;28;20192;-70
2023/08/28 02:23:22;;;;;;;12.47;11.13;;;22.10;84.20;;;;;;6142865;28;20249;-69
2023/08/28 02:26:24;;;;;;;12.73;11.43;;;22.10;84.40;;;;;;6176514;28;20239;-70
2023/08/28 02:29:24;;;;;;;14.37;12.97;;;22.10;84.70;;;;;;6159703;28;20203;-70
2023/08/28 02:32:25;;;;;;;13.23;11.93;;;22.10;84.80;;;;;;6169228;28;20260;-70
2023/08/28 02:35:26;;;;;;;12.20;11.00;;;22.00;85.00;;;;;;6162462;28;20204;-70
2023/08/28 02:38:26;;;;;;;13.13;11.93;;;22.00;85.30;;;;;;6161178;28;20219;-70
2023/08/28 02:41:27;;;;;;;12.17;11.17;;;22.00;84.70;;;;;;6160886;28;20188;-70
2023/08/28 02:44:28;;;;;;;12.30;11.10;;;21.90;84.90;;;;;;6144113;28;20188;-70
2023/08/28 02:47:29;;;;;;;12.03;11.00;;;21.90;84.10;;;;;;6160121;28;20198;-69
2023/08/28 02:50:31;;;;;;;12.20;11.00;;;21.90;83.60;;;;;;6161282;28;20211;-70
2023/08/28 02:53:32;;;;;;;12.70;10.87;;;21.90;84.10;;;;;;6182680;28;20197;-70
2023/08/28 02:56:39;;;;;;;11.60;10.40;;;21.90;83.30;;;;;;6162968;28;20204;-70
2023/08/28 02:59:40;;;;;;;11.23;10.00;;;21.90;83.40;;;;;;6165185;28;20216;-70
2023/08/28 03:02:40;;;;;;;11.07;10.17;;;21.90;83.50;;;;;;6160187;28;20216;-70
2023/08/28 03:05:46;;;;;;;11.90;10.73;;;21.90;83.60;;;;;;6161436;28;20274;-70
2023/08/28 03:08:47;;;;;;;11.23;10.10;;;21.80;83.60;;;;;;6160570;28;20241;-70
2023/08/28 03:11:48;;;;;;;11.60;10.50;;;21.80;83.30;;;;;;6146187;28;20195;-70
2023/08/28 03:14:48;;;;;;;11.30;10.33;;;21.70;83.40;;;;;;6167605;28;20189;-69
2023/08/28 03:17:49;;;;;;;11.10;10.10;;;21.70;83.50;;;;;;6165704;28;20208;-70
2023/08/28 03:20:49;;;;;;;11.17;10.17;;;21.70;83.70;;;;;;6171126;28;20184;-70
2023/08/28 03:23:51;;;;;;;12.17;11.07;;;21.70;83.50;;;;;;6176021;28;20188;-70
2023/08/28 03:26:52;;;;;;;11.83;10.83;;;21.60;83.00;;;;;;6177100;28;20181;-69
2023/08/28 03:29:52;;;;;;;11.23;10.13;;;21.60;84.30;;;;;;6159561;28;20243;-70
2023/08/28 03:32:53;;;;;;;11.33;10.37;;;21.60;84.20;;;;;;6141561;28;20191;-70
2023/08/28 03:35:54;;;;;;;11.87;10.53;;;21.60;84.00;;;;;;6157366;28;20200;-70
2023/08/28 03:38:55;;;;;;;10.97;10.03;;;21.60;84.20;;;;;;6173874;28;20217;-70
2023/08/28 03:41:55;;;;;;;11.37;10.17;;;21.60;83.70;;;;;;6158385;28;20200;-70
2023/08/28 03:44:56;;;;;;;10.93;9.93;;;21.60;84.40;;;;;;6163968;28;20227;-70
2023/08/28 03:47:57;;;;;;;11.13;10.23;;;21.60;83.90;;;;;;6159305;28;20226;-70
2023/08/28 03:50:57;;;;;;;11.27;10.27;;;21.60;83.70;;;;;;6169809;28;20216;-70
2023/08/28 03:54:00;;;;;;;10.27;9.43;;;21.60;83.90;;;;;;6159861;28;20205;-68
2023/08/28 03:57:01;;;;;;;10.47;9.47;;;21.60;83.70;;;;;;6156754;28;20216;-68
2023/08/28 04:00:05;;;;;;;10.33;9.30;;;21.60;83.40;;;;;;6144241;29;20193;-69
2023/08/28 04:03:06;;;;;;;9.97;8.97;;;21.60;83.40;;;;;;6174865;28;20189;-68
2023/08/28 04:06:08;;;;;;;10.37;9.40;;;21.60;83.30;;;;;;6162517;28;20196;-68
2023/08/28 04:09:09;;;;;;;9.30;8.33;;;21.60;82.70;;;;;;6174943;28;20207;-68
2023/08/28 04:12:09;;;;;;;8.53;7.70;;;21.60;81.40;;;;;;6159422;28;20224;-68
2023/08/28 04:15:10;;;;;;;9.13;8.43;;;21.60;81.90;;;;;;6141891;28;20192;-68
2023/08/28 04:18:11;;;;;;;10.33;8.50;;;21.60;81.20;;;;;;6174782;28;20243;-68
2023/08/28 04:21:12;;;;;;;9.57;8.67;;;21.50;81.40;;;;;;6146377;28;20199;-67
2023/08/28 04:24:12;;;;;;;9.07;8.27;;;21.60;81.90;;;;;;6173805;28;20191;-67
2023/08/28 04:27:13;;;;;;;9.13;8.23;;;21.60;81.40;;;;;;6162657;28;20204;-68
2023/08/28 04:30:14;;;;;;;9.17;8.20;;;21.60;81.00;;;;;;6159396;28;20226;-69
2023/08/28 04:33:14;;;;;;;8.83;7.93;;;21.50;80.80;;;;;;6155936;28;20197;-68
2023/08/28 04:36:15;;;;;;;9.50;8.60;;;21.50;81.00;;;;;;6157457;28;20259;-69
2023/08/28 04:39:16;;;;;;;8.90;8.00;;;21.50;81.10;;;;;;6173330;28;20227;-70
2023/08/28 04:42:16;;;;;;;8.13;7.33;;;21.50;81.20;;;;;;6162657;28;20200;-68
2023/08/28 04:45:17;;;;;;;8.43;7.63;;;21.50;81.10;;;;;;6171344;28;20191;-69
2023/08/28 04:48:18;;;;;;;8.83;8.03;;;21.50;80.90;;;;;;6154108;28;20341;-69
2023/08/28 04:51:20;;;;;;;7.90;7.20;;;21.50;80.90;;;;;;6168171;28;20204;-69
2023/08/28 04:54:20;;;;;;;7.10;6.50;;;21.50;80.80;;;;;;6158990;28;20250;-68
2023/08/28 04:57:21;;;;;;;7.30;6.60;;;21.50;79.80;;;;;;6151682;28;20214;-68
2023/08/28 05:00:22;;;;;;;7.17;6.57;;;21.50;79.60;;;;;;6142257;28;20199;-69
2023/08/28 05:03:22;;;;;;;7.27;6.57;;;21.50;79.20;;;;;;6156769;28;20193;-68
2023/08/28 05:06:23;;;;;;;7.20;6.10;;;21.50;78.00;;;;;;6158909;28;20193;-69
2023/08/28 05:09:24;;;;;;;6.23;5.50;;;21.50;78.10;;;;;;6153459;28;20201;-68
2023/08/28 05:12:25;;;;;;;6.07;5.50;;;21.50;78.00;;;;;;6163830;28;20254;-68
2023/08/28 05:15:25;;;;;;;6.73;6.13;;;21.50;78.20;;;;;;6158597;28;20228;-68
2023/08/28 05:18:26;;;;;;;6.10;5.57;;;21.50;78.10;;;;;;6157618;28;20220;-68
2023/08/28 05:21:26;;;;;;;6.27;5.67;;;21.50;78.30;;;;;;6149340;28;20196;-69
2023/08/28 05:24:27;;;;;;;6.17;5.13;;;21.50;77.40;;;;;;6160053;28;20187;-68
2023/08/28 05:27:28;;;;;;;5.77;5.17;;;21.50;78.10;;;;;;6138042;28;20196;-68
2023/08/28 05:30:28;;;;;;;6.40;5.00;;;21.50;78.10;;;;;;6158937;28;20195;-68
2023/08/28 05:33:30;;;;;;;4.90;4.50;;;21.50;77.70;;;;;;6155199;28;20264;-67
2023/08/28 05:36:31;;;;;;;5.00;4.60;;;21.50;78.70;;;;;;6174128;28;20200;-67
2023/08/28 05:39:32;;;;;;;6.13;4.63;;;21.50;77.40;;;;;;6156658;28;20248;-67
2023/08/28 05:42:32;;;;;;;4.43;4.00;;;21.50;76.60;;;;;;6134627;28;20216;-66
2023/08/28 05:45:33;;;;;;;5.10;4.70;;;21.50;76.20;;;;;;6160521;28;20192;-67
2023/08/28 05:48:34;;;;;;;4.83;4.43;;;21.50;77.20;;;;;;6163242;28;20195;-66
2023/08/28 05:51:34;;;;;;;5.17;4.77;;;21.50;77.70;;;;;;6160009;28;20243;-66
2023/08/28 05:54:35;;;;;;;4.80;4.40;;;21.50;78.00;;;;;;6152630;28;20195;-68
2023/08/28 05:57:36;;;;;;;4.33;3.97;;;21.50;77.90;;;;;;6163641;28;20209;-67
2023/08/28 06:00:37;;;;;;;4.63;4.23;;;21.60;78.20;;;;;;6159856;28;20192;-67
2023/08/28 06:03:37;;;;;;;4.47;4.07;;;21.60;78.10;;;;;;6173187;28;20188;-67
2023/08/28 06:06:38;;;;;;;4.90;4.50;;;21.60;77.80;;;;;;6153781;28;20236;-68
2023/08/28 06:09:41;;;;;;;4.40;4.10;;;21.60;77.80;;;;;;6174256;28;20196;-67
2023/08/28 06:12:42;;;;;;;4.50;4.10;;;21.60;78.10;;;;;;6148514;28;20189;-68
2023/08/28 06:15:42;;;;;;;5.23;4.63;;;21.50;77.70;;;;;;6152301;28;20200;-68
2023/08/28 06:18:43;;;;;;;5.17;4.70;;;21.50;77.50;;;;;;6155728;28;20216;-68
2023/08/28 06:21:45;;;;;;;5.17;4.60;;;21.50;77.80;;;;;;6169135;28;20200;-68
2023/08/28 06:24:50;;;;;;;4.43;4.00;;;21.50;77.90;;;;;;6154920;28;20220;-68
2023/08/28 06:27:51;;;;;;;4.83;4.10;;;21.50;78.20;;;;;;6158195;28;20592;-68
2023/08/28 06:30:52;;;;;;;4.67;4.27;;;21.50;79.00;;;;;;6155856;28;20189;-68
2023/08/28 06:33:52;;;;;;;4.80;4.40;;;21.50;78.70;;;;;;6163016;28;20196;-68
2023/08/28 06:36:53;;;;;;;4.30;3.93;;;21.50;78.60;;;;;;6160361;28;20188;-68
2023/08/28 06:39:54;;;;;;;4.97;4.07;;;21.60;78.40;;;;;;6158790;28;20220;-68
2023/08/28 06:42:55;;;;;;;4.20;3.90;;;21.70;79.20;;;;;;6157405;28;20193;-68
2023/08/28 06:45:55;;;;;;;4.27;3.80;;;21.70;78.30;;;;;;6150751;28;20283;-69
2023/08/28 06:48:56;;;;;;;5.53;4.20;;;21.70;78.50;;;;;;6145823;28;20184;-68
2023/08/28 06:51:57;;;;;;;4.97;4.57;;;21.70;77.50;;;;;;6158773;28;20196;-68
2023/08/28 06:54:57;;;;;;;5.70;4.87;;;21.80;77.80;;;;;;6168754;28;20216;-68
2023/08/28 06:57:58;;;;;;;4.63;4.23;;;21.80;76.90;;;;;;6161634;28;20220;-69
2023/08/28 07:00:59;;;;;;;4.73;4.27;;;21.80;77.50;;;;;;6163414;28;20196;-70
2023/08/28 07:04:00;;;;;;;4.60;4.30;;;21.80;77.80;;;;;;6150565;28;20188;-69
2023/08/28 07:07:00;;;;;;;3.97;3.57;;;21.90;77.40;;;;;;6168566;28;20266;-69
2023/08/28 07:10:01;;;;;;;4.47;4.00;;;21.80;75.30;;;;;;6160915;28;20196;-67
2023/08/28 07:13:02;;;;;;;4.17;3.77;;;21.70;74.40;;;;;;6157218;28;20222;-67
2023/08/28 07:16:03;;;;;;;4.17;3.23;;;21.70;75.30;;;;;;6157705;28;20184;-69
2023/08/28 07:19:03;;;;;;;4.33;4.00;;;21.70;74.70;;;;;;6168661;28;20215;-69
2023/08/28 07:22:04;;;;;;;5.00;4.33;;;21.70;75.00;;;;;;6151752;28;20201;-69
2023/08/28 07:25:05;;;;;;;6.80;4.53;;;21.80;73.90;;;;;;6163324;28;20196;-70
2023/08/28 07:28:07;;;;;;;5.10;4.53;;;21.80;75.10;;;;;;6166066;28;20201;-69
2023/08/28 07:31:10;;;;;;;5.63;4.27;;;21.90;74.20;;;;;;6156624;28;20200;-68
2023/08/28 07:34:10;;;;;;;5.27;3.57;;;21.90;73.90;;;;;;6169092;28;20207;-68
2023/08/28 07:37:11;;;;;;;5.87;4.80;;;21.90;74.20;;;;;;6173706;28;20205;-68
2023/08/28 07:40:12;;;;;;;5.20;4.57;;;21.90;74.10;;;;;;6156228;28;20190;-68
2023/08/28 07:43:13;;;;;;;5.63;4.87;;;21.80;74.70;;;;;;6155062;28;20188;-68
2023/08/28 07:46:14;;;;;;;7.90;6.33;;;21.70;74.40;;;;;;6155792;28;20193;-68
2023/08/28 07:49:14;;;;;;;6.20;5.40;;;21.70;75.30;;;;;;6165666;28;20239;-68
2023/08/28 07:52:15;;;;;;;5.73;5.03;;;21.70;75.70;;;;;;6152055;28;20198;-68
2023/08/28 07:55:16;;;;;;;5.03;4.60;;;21.70;75.10;;;;;;6156990;28;20191;-69
2023/08/28 07:58:18;;;;;;;5.23;3.93;;;21.70;73.40;;;;;;6166781;28;20223;-68
2023/08/28 08:01:18;;;;;;;4.17;3.87;;;21.60;73.70;;;;;;6166944;28;20215;-68
2023/08/28 08:04:19;;;;;;;4.87;4.33;;;21.50;74.50;;;;;;6166645;28;20201;-69
2023/08/28 08:07:20;;;;;;;5.87;4.77;;;21.50;75.00;;;;;;6161794;28;20263;-67
2023/08/28 08:10:20;;;;;;;5.60;4.30;;;21.50;74.60;;;;;;6174925;28;20208;-69
2023/08/28 08:13:21;;;;;;;4.63;4.23;;;21.40;74.50;;;;;;6175940;28;20259;-68
2023/08/28 08:16:22;;;;;;;4.70;3.57;;;21.40;74.50;;;;;;6168541;28;20200;-68
2023/08/28 08:19:22;;;;;;;6.00;4.27;;;21.40;74.30;;;;;;6147193;28;20207;-70
2023/08/28 08:22:24;;;;;;;5.47;4.23;;;21.40;74.20;;;;;;6163681;28;20199;-70
2023/08/28 08:25:25;;;;;;;7.23;5.67;;;21.50;74.20;;;;;;6166478;28;20216;-69
2023/08/28 08:28:26;;;;;;;7.67;5.10;;;21.50;74.20;;;;;;6157306;28;20188;-68
2023/08/28 08:31:26;;;;;;;5.20;4.50;;;21.50;74.80;;;;;;6151026;28;20200;-68
2023/08/28 08:34:28;;;;;;;5.30;4.80;;;21.50;75.10;;;;;;6175090;28;20191;-69
2023/08/28 08:37:29;;;;;;;5.40;4.90;;;21.60;75.80;;;;;;6134105;28;20213;-68
2023/08/28 08:40:32;;;;;;;4.87;4.37;;;21.60;75.90;;;;;;6171706;28;20196;-69
2023/08/28 08:43:32;;;;;;;5.90;5.20;;;21.60;76.40;;;;;;6181648;28;20235;-68
2023/08/28 08:46:34;;;;;;;6.57;4.83;;;21.70;75.90;;;;;;6168847;28;20188;-67
2023/08/28 08:49:38;;;;;;;4.87;4.47;;;21.70;75.70;;;;;;6164744;28;20200;-69
2023/08/28 08:52:42;;;;;;;5.07;4.23;;;21.90;75.10;;;;;;6177274;28;20213;-69
2023/08/28 08:55:53;;;;;;;4.60;4.10;;;22.00;74.30;;;;;;6189225;28;20212;-69
2023/08/28 08:58:54;;;;;;;5.07;3.37;;;;;;;;;;6176885;28;20212;-67
2023/08/28 09:01:59;;;;;;;6.00;3.27;;;;;;;;;;6158979;28;20259;-68
2023/08/28 09:05:00;;;;;;;5.47;3.43;;;;;;;;;;6171159;28;20204;-69
2023/08/28 09:08:03;;;;;;;4.23;3.10;;;;;;;;;;6158796;28;20244;-70
2023/08/28 09:11:04;;;;;;;4.37;3.33;;;;;;;;;;6175597;28;20256;-69
2023/08/28 09:14:05;;;;;;;4.57;3.50;;;;;;;;;;6162312;28;20193;-69
2023/08/28 09:17:07;;;;;;;3.90;3.07;;;;;;;;;;6159784;28;20196;-71
2023/08/28 09:20:13;;;;;;;3.50;3.20;;;;;;;;;;6168241;28;20207;-68
2023/08/28 09:23:13;;;;;;;4.90;3.00;;;23.00;69.70;;;;;;6171634;28;20185;-68
2023/08/28 09:26:22;;;;;;;4.97;3.23;;;23.10;69.90;;;;;;6151407;28;20194;-70
2023/08/28 09:29:24;;;;;;;4.97;3.60;;;;;;;;;;6159379;28;20193;-70
2023/08/28 09:32:28;;;;;;;7.03;3.30;;;;;;;;;;6175511;28;20216;-70
2023/08/28 09:35:34;;;;;;;5.33;3.30;;;;;;;;;;6164283;28;20196;-70
2023/08/28 09:38:41;;;;;;;4.40;4.00;;;;;;;;;;6172782;28;20217;-70
2023/08/28 09:41:51;;;;;;;5.03;3.17;;;;;;;;;;6176187;28;20208;-69
2023/08/28 09:44:52;;;;;;;4.70;4.30;;;;;;;;;;6158114;28;20277;-70
2023/08/28 09:47:53;;;;;;;4.53;4.07;;;;;;;;;;6173239;28;20331;-70
2023/08/28 09:50:54;;;;;;;4.60;4.10;;;;;;;;;;6173158;28;20196;-70
2023/08/28 09:53:59;;;;;;;5.03;4.57;;;;;;;;;;6160457;28;20201;-70
2023/08/28 09:57:00;;;;;;;5.17;4.60;;;;;;;;;;6161264;28;20201;-70
2023/08/28 10:00:02;;;;;;;4.67;4.27;;;;;;;;;;6173704;28;20224;-70
2023/08/28 10:03:04;;;;;;;5.63;4.13;;;;;;;;;;6170802;28;20205;-70
2023/08/28 10:06:05;;;;;;;6.13;4.70;;;;;;;;;;6161142;28;20196;-70
2023/08/28 10:09:08;;;;;;;6.10;4.87;;;;;;;;;;6159363;28;20295;-70
2023/08/28 10:12:09;;;;;;;6.43;5.57;;;;;;;;;;6184153;28;20201;-70
2023/08/28 10:15:11;;;;;;;7.93;4.93;;;;;;;;;;6174946;28;20197;-70
2023/08/28 10:18:31;;;;;;;6.00;5.40;;;;;;;;;;6176102;28;20212;-70
2023/08/28 10:21:32;;;;;;;7.27;5.47;;;;;;;;;;6173845;28;20189;-70
2023/08/28 10:24:37;;;;;;;5.60;5.10;;;;;;;;;;6169295;28;20197;-70
2023/08/28 10:27:38;;;;;;;5.50;5.07;;;;;;;;;;6167938;28;20189;-70
2023/08/28 10:30:39;;;;;;;7.87;4.70;;;;;;;;;;6159707;28;20195;-70
2023/08/28 10:33:41;;;;;;;5.70;4.80;;;;;;;;;;6158544;28;20204;-71
2023/08/28 10:36:44;;;;;;;6.07;5.07;;;;;;;;;;6156946;28;20211;-70
2023/08/28 10:39:45;;;;;;;5.87;5.03;;;;;;;;;;6175647;28;20215;-70
2023/08/28 10:42:46;;;;;;;6.33;5.10;;;23.20;69.70;;;;;;6154073;28;20199;-71
2023/08/28 10:45:49;;;;;;;7.50;4.80;;;24.40;65.30;;;;;;6163864;28;20189;-70
2023/08/28 10:48:59;;;;;;;6.03;4.97;;;24.50;65.20;;;;;;6168833;28;20193;-69
2023/08/28 10:52:06;;;;;;;5.00;4.57;;;24.50;64.50;;;;;;6162180;28;20229;-70
2023/08/28 10:55:09;;;;;;;6.23;5.13;;;;;;;;;;6158632;28;20201;-69
2023/08/28 10:58:10;;;;;;;7.97;5.37;;;;;;;;;;6168596;28;20217;-69
2023/08/28 11:01:13;;;;;;;5.60;4.97;;;;;;;;;;6162639;28;20220;-69
2023/08/28 11:04:17;;;;;;;6.67;5.33;;;;;;;;;;6172549;28;20192;-69
2023/08/28 11:07:21;;;;;;;6.50;5.40;;;;;;;;;;6164857;28;20236;-69
2023/08/28 11:10:25;;;;;;;5.97;4.83;;;;;;;;;;6175023;28;20192;-69
2023/08/28 11:13:26;;;;;;;6.30;4.87;;;;;;;;;;6161848;28;20188;-69
2023/08/28 11:16:27;;;;;;;6.90;4.50;;;;;;;;;;6167439;28;20198;-69
2023/08/28 11:19:29;;;;;;;5.80;5.20;;;;;;;;;;6153134;28;20225;-69
2023/08/28 11:22:38;;;;;;;5.87;5.27;;;;;;;;;;6175519;28;20259;-69
2023/08/28 11:25:42;;;;;;;5.80;5.20;;;;;;;;;;6174201;28;20252;-70
2023/08/28 11:28:44;;;;;;;5.67;4.70;;;;;;;;;;6159192;28;20195;-70
2023/08/28 11:31:46;;;;;;;4.93;4.47;;;;;;;;;;6170769;28;20196;-69
2023/08/28 11:34:48;;;;;;;5.03;4.53;;;;;;;;;;6159543;28;20190;-68
2023/08/28 11:37:53;;;;;;;7.57;4.67;;;;;;;;;;6160020;28;20224;-69
2023/08/28 11:40:55;;;;;;;5.80;4.53;;;;;;;;;;6172940;28;20207;-69
2023/08/28 11:43:56;;;;;;;7.20;4.57;;;;;;;;;;6172735;28;20197;-69
2023/08/28 11:46:57;;;;;;;6.83;4.23;;;;;;;;;;6156162;28;20279;-69
2023/08/28 11:49:59;;;;;;;5.40;4.07;;;;;;;;;;6153519;28;20201;-69
2023/08/28 11:53:00;;;;;;;4.37;3.80;;;;;;;;;;6152664;28;20268;-69
2023/08/28 11:56:03;;;;;;;4.50;4.10;;;;;;;;;;6148679;28;20228;-69
2023/08/28 11:59:05;;;;;;;5.27;4.77;;;;;;;;;;6157589;28;20224;-69
2023/08/28 12:02:08;;;;;;;4.37;3.97;;;;;;;;;;6172706;28;20291;-68
2023/08/28 12:05:09;;;;;;;4.20;3.90;;;;;;;;;;6173990;28;20366;-69
2023/08/28 12:08:11;;;;;;;4.97;4.23;;;;;;;;;;6163657;28;20263;-69
2023/08/28 12:11:12;;;;;;;4.00;3.70;;;;;;;;;;6157876;28;20237;-69
2023/08/28 12:14:15;;;;;;;6.57;3.90;;;;;;;;;;6170823;28;20231;-69
2023/08/28 12:17:16;;;;;;;4.30;3.80;;;;;;;;;;6168608;28;20193;-69
2023/08/28 12:20:19;;;;;;;4.30;3.90;;;;;;;;;;6153307;28;20284;-68
2023/08/28 12:23:20;;;;;;;3.73;3.43;;;;;;;;;;6152322;28;20221;-70
2023/08/28 12:26:23;;;;;;;3.37;3.07;;;;;;;;;;6166735;28;20196;-70
2023/08/28 12:29:25;;;;;;;3.73;3.37;;;;;;;;;;6169164;28;20296;-70
2023/08/28 12:32:26;;;;;;;6.90;3.00;;;;;;;;;;6165339;28;20196;-70
2023/08/28 12:35:27;;;;;;;3.20;2.90;;;;;;;;;;6157545;28;20219;-70
2023/08/28 12:38:28;;;;;;;3.83;3.43;;;;;;;;;;6173462;28;20222;-70
2023/08/28 12:41:34;;;;;;;3.40;3.20;;;;;;;;;;6159717;28;20220;-70
2023/08/28 12:44:35;;;;;;;3.47;3.17;;;;;;;;;;6178345;28;20184;-69
2023/08/28 12:47:40;;;;;;;3.20;2.90;;;;;;;;;;6161688;28;20224;-69
2023/08/28 12:50:41;;;;;;;4.20;3.80;;;;;;;;;;6177502;28;20287;-69
2023/08/28 12:53:42;;;;;;;3.60;3.30;;;;;;;;;;6169536;28;20199;-69
2023/08/28 12:56:43;;;;;;;3.87;3.40;;;;;;;;;;6168015;28;20235;-70
2023/08/28 12:59:44;;;;;;;3.90;3.07;;;;;;;;;;6178182;28;20213;-70
2023/08/28 13:02:45;;;;;;;3.10;2.80;;;;;;;;;;6161401;28;20220;-70
2023/08/28 13:05:47;;;;;;;4.60;3.13;;;;;;;;;;6151156;28;20188;-70
2023/08/28 13:08:49;;;;;;;2.83;2.63;;;;;;;;;;6161633;28;20252;-70
2023/08/28 13:11:50;;;;;;;3.40;3.10;;;;;;;;;;6156616;28;20230;-70
2023/08/28 13:14:51;;;;;;;4.00;3.13;;;;;;;;;;6175252;28;20199;-70
2023/08/28 13:17:52;;;;;;;3.50;3.20;;;;;;;;;;6160312;28;20217;-70
2023/08/28 13:20:53;;;;;;;3.33;2.97;;;;;;;;;;6161804;28;20285;-70
2023/08/28 13:23:55;;;;;;;3.20;2.90;;;;;;;;;;6164992;28;20193;-70
2023/08/28 13:26:56;;;;;;;4.30;3.20;;;;;;;;;;6174748;28;20246;-70
2023/08/28 13:29:57;;;;;;;3.47;3.17;;;;;;;;;;6157275;28;20205;-69
2023/08/28 13:33:01;;;;;;;4.53;3.03;;;;;;;;;;6160474;28;20209;-70
2023/08/28 13:36:04;;;;;;;4.60;3.43;;;;;;;;;;6165703;28;20200;-70
2023/08/28 13:39:07;;;;;;;4.00;3.60;;;;;;;;;;6192273;28;20212;-70
2023/08/28 13:42:08;;;;;;;3.83;3.50;;;;;;;;;;6161089;28;20196;-69
2023/08/28 13:45:10;;;;;;;4.23;3.30;;;;;;;;;;6161026;28;20193;-70
2023/08/28 13:48:11;;;;;;;3.30;3.03;;;;;;;;;;6161612;28;20200;-70
2023/08/28 13:51:12;;;;;;;5.33;3.93;;;;;;;;;;6161098;28;20211;-70
2023/08/28 13:54:13;;;;;;;4.00;3.43;;;;;;;;;;6167053;28;20237;-70
2023/08/28 13:57:14;;;;;;;4.77;3.50;;;;;;;;;;6172041;28;20191;-70
2023/08/28 14:00:16;;;;;;;4.33;3.93;;;;;;;;;;6152963;28;20201;-70
2023/08/28 14:03:17;;;;;;;4.50;3.80;;;;;;;;;;6160611;28;20204;-70
2023/08/28 14:06:18;;;;;;;3.90;3.33;;;;;;;;;;6175953;28;20196;-71
2023/08/28 14:09:19;;;;;;;3.73;3.40;;;;;;;;;;6158137;28;20207;-70
2023/08/28 14:12:23;;;;;;;3.93;3.53;;;24.70;63.50;;;;;;6154651;28;20200;-70
2023/08/28 14:15:24;;;;;;;3.50;3.20;;;28.60;60.50;;;;;;6161191;28;20289;-70
2023/08/28 14:18:24;;;;;;;3.73;2.93;;;29.80;57.40;;;;;;6165634;28;20224;-70
2023/08/28 14:21:25;;;;;;;3.40;3.10;;;30.20;56.10;;;;;;6158326;28;20192;-70
2023/08/28 14:24:26;;;;;;;3.53;3.23;;;30.70;55.70;;;;;;6150934;28;20279;-70
2023/08/28 14:27:26;;;;;;;4.30;3.73;;;30.60;54.00;;;;;;6160255;28;20194;-70
2023/08/28 14:30:27;;;;;;;5.03;3.63;;;30.10;55.90;;;;;;6138091;28;20199;-70
2023/08/28 14:33:28;;;;;;;4.80;3.33;;;;;;;;;;6139266;28;20197;-70
2023/08/28 14:36:29;;;;;;;5.47;3.43;;;;;;;;;;6159616;28;20192;-70
2023/08/28 14:39:31;;;;;;;3.70;3.50;;;;;;;;;;6173908;28;20217;-70
2023/08/28 14:42:32;;;;;;;4.37;3.97;;;;;;;;;;6163907;28;20188;-70
2023/08/28 14:45:34;;;;;;;4.10;3.67;;;;;;;;;;6157636;28;20200;-70
2023/08/28 14:48:35;;;;;;;7.63;4.10;;;;;;;;;;6172723;28;20200;-70
2023/08/28 14:51:36;;;;;;;4.30;4.00;;;29.50;55.00;;;;;;6155487;28;20204;-69
2023/08/28 14:54:37;;;;;;;5.03;4.57;;;;;;;;;;6157948;28;20193;-69
2023/08/28 14:57:38;;;;;;;5.63;4.27;;;;;;;;;;6160819;28;20220;-69
2023/08/28 15:00:39;;;;;;;4.93;4.47;;;;;;;;;;6158674;28;20290;-69
2023/08/28 15:03:43;;;;;;;5.43;4.70;;;;;;;;;;6158171;28;20200;-69
2023/08/28 15:06:44;;;;;;;5.33;4.83;;;;;;;;;;6172801;28;20302;-69
2023/08/28 15:09:45;;;;;;;5.87;5.33;;;;;;;;;;6176016;28;20191;-68
2023/08/28 15:12:46;;;;;;;6.77;5.30;;;;;;;;;;6158386;28;20200;-69
2023/08/28 15:15:51;;;;;;;6.00;5.50;;;28.80;59.80;;;;;;6147132;28;20201;-69
2023/08/28 15:18:52;;;;;;;6.70;5.60;;;26.60;65.10;;;;;;6170398;28;20264;-69
2023/08/28 15:21:53;;;;;;;5.70;5.10;;;26.40;65.60;;;;;;6154145;28;20185;-69
2023/08/28 15:24:53;;;;;;;6.60;5.30;;;26.20;67.00;;;;;;6162690;28;20197;-68
2023/08/28 15:27:54;;;;;;;6.13;5.47;;;26.10;67.30;;;;;;6160583;28;20203;-69
2023/08/28 15:30:56;;;;;;;6.53;5.20;;;25.90;68.00;;;;;;6159860;28;20197;-69
2023/08/28 15:33:57;;;;;;;6.13;5.53;;;25.80;67.80;;;;;;6158684;28;20203;-69
2023/08/28 15:36:57;;;;;;;7.87;4.90;;;25.80;67.70;;;;;;6163360;28;20284;-69
2023/08/28 15:39:59;;;;;;;7.43;6.07;;;25.60;67.80;;;;;;6159030;28;20210;-69
2023/08/28 15:43:00;;;;;;;7.20;6.03;;;25.50;67.30;;;;;;6153486;28;20197;-69
2023/08/28 15:46:02;;;;;;;6.57;5.40;;;25.40;67.90;;;;;;6174792;28;20208;-69
2023/08/28 15:49:03;;;;;;;7.27;6.03;;;24.00;50.00;;;;;;6166017;28;20202;-69
2023/08/28 15:52:04;;;;;;;6.60;6.00;;;25.20;68.90;;;;;;6158669;28;20201;-69
2023/08/28 15:55:06;;;;;;;6.13;5.60;;;25.00;68.50;;;;;;6158849;28;20219;-69
2023/08/28 15:58:07;;;;;;;6.20;5.60;;;25.00;69.60;;;;;;6176654;28;20278;-69
2023/08/28 16:01:08;;;;;;;8.33;5.33;;;25.00;69.90;;;;;;6167176;28;20247;-69
2023/08/28 16:04:09;;;;;;;6.93;6.33;;;24.90;70.70;;;;;;6161840;28;20200;-70
2023/08/28 16:07:10;;;;;;;6.10;5.60;;;24.80;71.10;;;;;;6163094;28;20233;-69
2023/08/28 16:10:13;;;;;;;7.23;6.43;;;;;;;;;;6182533;28;20192;-70
2023/08/28 16:13:14;;;;;;;6.50;5.80;;;;;;;;;;6149292;28;20201;-69
2023/08/28 16:16:15;;;;;;;6.10;5.50;;;;;;;;;;6162212;28;20205;-65
2023/08/28 16:19:18;;;;;;;6.03;5.50;;;;;;;;;;6170348;28;20223;-66
2023/08/28 16:22:19;;;;;;;5.73;5.33;;;;;;;;;;6174718;28;20215;-66
2023/08/28 16:25:20;;;;;;;6.03;5.20;;;;;;;;;;6157888;28;20299;-71
2023/08/28 16:28:21;;;;;;;7.57;5.77;;;;;;;;;;6171878;28;20207;-73